TimeCDT,TemperatureF,Dew PointF,Humidity,Sea Level PressureIn,VisibilityMPH,Wind Direction,Wind SpeedMPH,Gust SpeedMPH,PrecipitationIn,Events,Conditions,WindDirDegrees,DateUTC
12:47 AM,71.6,68.0,88,30.04,10.0,NE,13.8,24.2,N/A,,Mostly Cloudy,40,2013-06-23 05:47:00
12:53 AM,71.1,68.0,90,30.02,10.0,NNE,13.8,-,N/A,,Mostly Cloudy,30,2013-06-23 05:53:00
1:15 AM,69.8,62.6,78,30.04,10.0,ENE,12.7,21.9,N/A,Thunderstorm,Overcast,60,2013-06-23 06:15:00
1:30 AM,69.8,62.6,78,30.05,10.0,NE,13.8,-,N/A,,Overcast,50,2013-06-23 06:30:00
1:53 AM,68.0,62.1,81,30.03,8.0,NE,13.8,24.2,N/A,,Overcast,40,2013-06-23 06:53:00
2:40 AM,68.0,62.6,83,30.00,8.0,East,10.4,-,N/A,,Overcast,100,2013-06-23 07:40:00
2:53 AM,68.0,62.1,81,29.98,8.0,SE,10.4,-,N/A,,Mostly Cloudy,130,2013-06-23 07:53:00
3:53 AM,66.0,62.1,87,29.99,9.0,ENE,3.5,-,N/A,,Partly Cloudy,70,2013-06-23 08:53:00
4:53 AM,66.0,63.0,90,29.99,9.0,NE,4.6,17.3,N/A,,Mostly Cloudy,40,2013-06-23 09:53:00
5:53 AM,64.9,64.0,97,29.93,7.0,Calm,Calm,-,N/A,,Clear,0,2013-06-23 10:53:00
6:53 AM,66.9,64.9,93,29.92,10.0,SSE,11.5,-,N/A,,Clear,160,2013-06-23 11:53:00
7:53 AM,71.1,66.9,87,29.94,10.0,South,16.1,21.9,N/A,,Clear,170,2013-06-23 12:53:00
8:53 AM,73.9,66.9,79,29.94,10.0,South,16.1,24.2,N/A,,Clear,190,2013-06-23 13:53:00
9:53 AM,75.9,68.0,76,29.93,10.0,South,13.8,23.0,N/A,,Clear,180,2013-06-23 14:53:00
10:53 AM,79.0,71.1,77,29.96,10.0,SSW,16.1,-,N/A,,Clear,210,2013-06-23 15:53:00
11:53 AM,78.1,70.0,76,29.95,10.0,SW,15.0,-,N/A,,Overcast,220,2013-06-23 16:53:00
12:27 PM,75.2,66.2,73,29.99,10.0,WNW,15.0,31.1,0.00,,Mostly Cloudy,300,2013-06-23 17:27:00
12:34 PM,75.2,64.4,69,29.99,10.0,NW,9.2,-,0.00,,Mostly Cloudy,310,2013-06-23 17:34:00
12:53 PM,79.0,64.9,62,29.96,10.0,West,9.2,-,0.00,,Clear,270,2013-06-23 17:53:00
1:53 PM,80.1,64.9,60,29.86,10.0,South,13.8,-,N/A,,Clear,170,2013-06-23 18:53:00
2:53 PM,80.1,66.0,62,29.85,10.0,South,13.8,-,N/A,,Clear,190,2013-06-23 19:53:00
3:53 PM,82.0,66.0,58,29.88,10.0,South,11.5,-,N/A,,Clear,190,2013-06-23 20:53:00
4:53 PM,81.0,64.9,58,29.88,10.0,South,9.2,-,N/A,,Clear,190,2013-06-23 21:53:00
5:53 PM,80.1,66.0,62,29.91,10.0,SSW,11.5,-,N/A,,Clear,200,2013-06-23 22:53:00
6:53 PM,77.0,64.9,66,29.92,10.0,South,9.2,-,N/A,,Clear,180,2013-06-23 23:53:00
7:53 PM,75.9,66.0,71,29.93,10.0,South,9.2,-,N/A,,Clear,190,2013-06-24 00:53:00
8:53 PM,73.9,66.9,79,29.93,10.0,South,9.2,-,N/A,,Clear,190,2013-06-24 01:53:00
9:53 PM,72.0,66.0,81,29.94,10.0,South,9.2,-,N/A,,Clear,190,2013-06-24 02:53:00
10:53 PM,71.1,66.0,84,29.96,10.0,SSW,8.1,-,N/A,,Clear,200,2013-06-24 03:53:00
11:53 PM,70.0,66.9,90,29.96,10.0,SSW,9.2,-,N/A,,Clear,200,2013-06-24 04:53:00